サンフランシスコ の空港の天気 - METARとTAF

サンフランシスコ国際空港 ( KSFO / SFO ) - アメリカ カリフォルニア州サンマテオ郡
飛行場実況気象(Metar)
観測時間10/22 06:56 PDT (10/22 13:56 UTC)
風向・風速西北西 3m/s
視程10km以上
天気現象
少しの雲 雲底高度 300m
気温13.3℃
湿度84%
気圧1010.1hPa
METARKSFO 221356Z 30006KT 10SM FEW010 13/11 A2983 RMK AO2 SLP101 T01330106
過去の天気等 Google飛行場航空写真 Wunderground天気予報

過去48時間のMETAR

飛行場予報(TAF)
発表時間: 10/22 04:27 PDT (10/22 11:27 UTC)
予報対象時間: 22日5時 PDT ~ 23日11時 PDT
風向・風速不定 2m/s
視程10km以上
なし
22日7時 PDT から
風向・風速北東 3m/s
視程10km以上
なし
22日15時 PDT から
風向・風速西北西 6m/s
視程10km以上
なし
22日21時 PDT から
風向・風速西北西 3m/s
視程10km以上
なし
23日2時 PDT から
風向・風速不定 2m/s
視程10km以上
なし
KSFO 221127Z 2212/2318 VRB04KT P6SM SKC
FM221400 04005KT P6SM SKC
FM222200 30012KT P6SM SKC
FM230400 30006KT P6SM SKC
FM230900 VRB03KT P6SM SKC